createdAt,value
2024-02-04T00:02:04.129Z,10.56
2024-02-04T00:04:34.113Z,10.51
2024-02-04T00:07:03.750Z,10.54
2024-02-04T00:09:35.818Z,10.55
2024-02-04T00:12:07.588Z,10.48
2024-02-04T00:14:37.011Z,10.48
2024-02-04T00:17:06.482Z,10.48
2024-02-04T00:19:36.057Z,10.48
2024-02-04T00:22:05.702Z,10.45
2024-02-04T00:24:35.221Z,10.39
2024-02-04T00:27:04.769Z,10.38
2024-02-04T00:29:34.149Z,10.37
2024-02-04T00:32:03.486Z,10.32
2024-02-04T00:34:32.936Z,10.35
2024-02-04T00:37:02.435Z,10.36
2024-02-04T00:39:31.881Z,10.32
2024-02-04T00:42:01.363Z,10.27
2024-02-04T00:44:30.770Z,10.28
2024-02-04T00:47:00.164Z,10.26
2024-02-04T00:49:29.649Z,10.26
2024-02-04T00:51:59.195Z,10.21
2024-02-04T00:54:28.633Z,10.23
2024-02-04T00:56:58.790Z,10.17
2024-02-04T00:59:28.180Z,10.15
2024-02-04T01:01:57.581Z,10.22
2024-02-04T01:04:27.255Z,10.21
2024-02-04T01:07:01.311Z,10.17
2024-02-04T01:09:32.092Z,10.15
2024-02-04T01:12:01.450Z,10.18
2024-02-04T01:14:30.803Z,10.19
2024-02-04T01:17:00.530Z,10.16
2024-02-04T01:19:29.945Z,10.17
2024-02-04T01:21:59.786Z,10.16
2024-02-04T01:24:29.502Z,10.14
2024-02-04T01:26:58.928Z,10.15
2024-02-04T01:29:28.502Z,10.15
2024-02-04T01:31:57.899Z,10.14
2024-02-04T01:34:27.280Z,10.16
2024-02-04T01:36:56.771Z,10.16
2024-02-04T01:39:26.321Z,10.16
2024-02-04T01:41:55.750Z,10.13
2024-02-04T01:44:25.153Z,10.13
2024-02-04T01:46:54.493Z,10.04
2024-02-04T01:49:23.981Z,10.03
2024-02-04T01:51:54.047Z,10.03
2024-02-04T01:54:26.212Z,10.04
2024-02-04T01:56:57.286Z,10.02
2024-02-04T01:59:31.819Z,10.00
2024-02-04T02:02:03.013Z,10.01
2024-02-04T02:04:35.166Z,10.01
2024-02-04T02:07:04.938Z,10.01
2024-02-04T02:09:34.475Z,10.02
2024-02-04T02:12:17.897Z,10.02
2024-02-04T02:14:55.510Z,10.02
2024-02-04T02:17:50.996Z,9.96
2024-02-04T02:20:34.837Z,10.00
2024-02-04T02:23:14.450Z,9.99
2024-02-04T02:25:44.637Z,9.97
2024-02-04T02:28:14.139Z,9.96
2024-02-04T02:30:43.859Z,9.93
2024-02-04T02:33:13.279Z,9.89
2024-02-04T02:35:42.661Z,9.90
2024-02-04T02:38:29.012Z,9.83
2024-02-04T02:41:06.059Z,9.81
2024-02-04T02:43:37.767Z,9.78
2024-02-04T02:46:08.145Z,9.75
2024-02-04T02:48:38.820Z,9.73
2024-02-04T02:51:08.456Z,9.68
2024-02-04T02:53:37.852Z,9.70
2024-02-04T02:56:08.352Z,9.67
2024-02-04T02:58:37.828Z,9.68
2024-02-04T03:01:07.492Z,9.68
2024-02-04T03:03:36.968Z,9.68
2024-02-04T03:06:06.976Z,9.69
2024-02-04T03:08:36.397Z,9.70
2024-02-04T03:11:05.895Z,9.67
2024-02-04T03:13:35.274Z,9.68
2024-02-04T03:16:04.649Z,9.67
2024-02-04T03:18:34.678Z,9.68
2024-02-04T03:21:04.130Z,9.65
2024-02-04T03:23:33.582Z,9.63
2024-02-04T03:26:03.000Z,9.53
2024-02-04T03:28:32.473Z,9.56
2024-02-04T03:31:02.261Z,9.58
2024-02-04T03:33:31.915Z,9.54
2024-02-04T03:36:01.444Z,9.52
2024-02-04T03:38:30.946Z,9.49
2024-02-04T03:41:00.369Z,9.45
2024-02-04T03:43:29.835Z,9.35
2024-02-04T03:45:59.341Z,9.40
2024-02-04T03:48:29.827Z,9.40
2024-02-04T03:50:59.274Z,9.31
2024-02-04T03:53:28.684Z,9.25
2024-02-04T03:55:58.260Z,9.25
2024-02-04T03:58:33.410Z,9.25
2024-02-04T04:01:02.927Z,9.16
2024-02-04T04:03:32.359Z,9.16
2024-02-04T04:06:02.151Z,9.16
2024-02-04T04:08:31.532Z,9.13
2024-02-04T04:11:01.020Z,9.11
2024-02-04T04:13:30.396Z,9.08
2024-02-04T04:15:59.807Z,9.06
2024-02-04T04:18:29.305Z,9.06
2024-02-04T04:20:59.335Z,9.06
2024-02-04T04:23:28.726Z,8.98
2024-02-04T04:25:58.116Z,9.02
2024-02-04T04:28:27.508Z,9.06
2024-02-04T04:30:57.341Z,9.09
2024-02-04T04:33:26.877Z,9.10
2024-02-04T04:35:56.428Z,9.13
2024-02-04T04:38:25.804Z,9.12
2024-02-04T04:40:55.200Z,9.10
2024-02-04T04:43:24.552Z,9.10
2024-02-04T04:45:54.089Z,9.12
2024-02-04T04:48:23.726Z,9.11
2024-02-04T04:50:53.204Z,9.10
2024-02-04T04:53:22.521Z,9.12
2024-02-04T04:55:51.858Z,9.11
2024-02-04T04:58:21.228Z,9.10
2024-02-04T05:00:50.694Z,9.08
2024-02-04T05:03:20.187Z,9.09
2024-02-04T05:05:51.178Z,9.08
2024-02-04T05:08:23.523Z,9.10
2024-02-04T05:10:52.834Z,9.05
2024-02-04T05:13:22.226Z,9.07
2024-02-04T05:15:51.638Z,9.07
2024-02-04T05:18:21.209Z,9.04
2024-02-04T05:20:50.712Z,9.05
2024-02-04T05:23:20.140Z,9.05
2024-02-04T05:25:49.530Z,9.04
2024-02-04T05:28:19.005Z,9.01
2024-02-04T05:30:48.445Z,9.01
2024-02-04T05:33:17.937Z,8.98
2024-02-04T05:35:47.378Z,8.96
2024-02-04T05:38:16.705Z,8.96
2024-02-04T05:40:46.070Z,8.96
2024-02-04T05:43:15.474Z,8.94
2024-02-04T05:45:44.889Z,8.99
2024-02-04T05:48:14.961Z,8.98
2024-02-04T05:50:44.807Z,8.96
2024-02-04T05:53:14.248Z,8.99
2024-02-04T05:55:43.649Z,9.02
2024-02-04T05:58:15.246Z,9.03
2024-02-04T06:00:44.723Z,9.00
2024-02-04T06:03:15.681Z,9.01
2024-02-04T06:05:45.266Z,8.94
2024-02-04T06:08:14.728Z,8.95
2024-02-04T06:10:44.660Z,8.96
2024-02-04T06:13:14.118Z,8.95
2024-02-04T06:15:43.632Z,8.98
2024-02-04T06:18:12.997Z,8.94
2024-02-04T06:20:42.526Z,8.92
2024-02-04T06:23:12.703Z,8.99
2024-02-04T06:25:43.358Z,8.99
2024-02-04T06:28:13.015Z,9.02
2024-02-04T06:30:42.596Z,9.00
2024-02-04T06:33:12.012Z,9.00
2024-02-04T06:35:41.451Z,8.99
2024-02-04T06:38:10.794Z,9.02
2024-02-04T06:40:40.299Z,9.06
2024-02-04T06:43:10.101Z,9.08
2024-02-04T06:45:39.516Z,9.06
2024-02-04T06:48:09.798Z,9.07
2024-02-04T06:50:39.465Z,9.10
2024-02-04T06:53:08.962Z,9.10
2024-02-04T06:55:38.306Z,9.11
2024-02-04T06:58:07.656Z,9.15
2024-02-04T07:00:37.150Z,9.14
2024-02-04T07:03:06.773Z,9.19
2024-02-04T07:05:36.192Z,9.22
2024-02-04T07:08:05.678Z,9.21
2024-02-04T07:10:35.066Z,9.22
2024-02-04T07:13:04.513Z,9.25
2024-02-04T07:15:34.019Z,9.17
2024-02-04T07:18:03.549Z,9.20
2024-02-04T07:20:33.033Z,9.20
2024-02-04T07:23:02.397Z,9.24
2024-02-04T07:25:31.935Z,9.21
2024-02-04T07:28:01.657Z,9.25
2024-02-04T07:30:31.265Z,9.25
2024-02-04T07:33:00.655Z,9.25
2024-02-04T07:35:30.093Z,9.28
2024-02-04T07:37:59.488Z,9.31
2024-02-04T07:40:29.302Z,9.35
2024-02-04T07:42:58.784Z,9.39
2024-02-04T07:45:28.215Z,9.41
2024-02-04T07:47:57.694Z,9.39
2024-02-04T07:50:27.437Z,9.45
2024-02-04T07:52:56.920Z,9.46
2024-02-04T07:55:26.443Z,9.47
2024-02-04T07:57:55.877Z,9.48
2024-02-04T08:00:25.325Z,9.49
2024-02-04T08:02:54.708Z,9.56
2024-02-04T08:05:24.099Z,9.57
2024-02-04T08:07:53.538Z,9.59
2024-02-04T08:10:23.230Z,9.56
2024-02-04T08:12:54.458Z,9.60
2024-02-04T08:15:24.864Z,9.58
2024-02-04T08:17:54.274Z,9.57
2024-02-04T08:20:23.806Z,9.58
2024-02-04T08:22:54.687Z,9.54
2024-02-04T08:25:24.023Z,9.52
2024-02-04T08:27:54.155Z,9.55
2024-02-04T08:30:24.316Z,9.61
2024-02-04T08:32:53.694Z,9.63
2024-02-04T08:35:23.050Z,9.60
2024-02-04T08:37:52.594Z,9.59
2024-02-04T08:40:21.909Z,9.63
2024-02-04T08:42:51.262Z,9.63
2024-02-04T08:45:20.594Z,9.68
2024-02-04T08:47:50.072Z,9.68
2024-02-04T08:50:19.550Z,9.68
2024-02-04T08:52:49.022Z,9.66
2024-02-04T08:55:18.499Z,9.65
2024-02-04T08:57:49.596Z,9.65
2024-02-04T09:00:19.836Z,9.69
2024-02-04T09:02:49.182Z,9.72
2024-02-04T09:05:19.491Z,9.72
2024-02-04T09:07:49.165Z,9.72
2024-02-04T09:10:18.641Z,9.75
2024-02-04T09:12:48.195Z,9.67
2024-02-04T09:15:18.145Z,9.76
2024-02-04T09:17:47.629Z,9.83
2024-02-04T09:20:17.354Z,9.88
2024-02-04T09:22:46.970Z,9.85
2024-02-04T09:25:16.556Z,9.91
2024-02-04T09:27:46.185Z,9.94
2024-02-04T09:30:15.836Z,9.98
2024-02-04T09:32:45.440Z,10.02
2024-02-04T09:35:15.092Z,10.06
2024-02-04T09:37:45.364Z,10.12
2024-02-04T09:40:15.398Z,10.18
2024-02-04T09:42:45.530Z,10.20
2024-02-04T09:45:18.618Z,10.24
2024-02-04T09:47:48.505Z,10.27
2024-02-04T09:50:20.933Z,10.31
2024-02-04T09:53:01.737Z,10.30
2024-02-04T09:55:34.159Z,10.38
2024-02-04T09:58:03.616Z,10.36
2024-02-04T10:00:35.859Z,10.40
2024-02-04T10:03:07.970Z,10.44
2024-02-04T10:05:37.352Z,10.50
2024-02-04T10:08:07.552Z,10.51
2024-02-04T10:10:37.578Z,10.52
2024-02-04T10:13:13.187Z,10.61
2024-02-04T10:15:42.783Z,10.65
2024-02-04T10:18:12.332Z,10.66
2024-02-04T10:20:41.835Z,10.65
2024-02-04T10:23:11.170Z,10.63
2024-02-04T10:25:40.589Z,10.63
2024-02-04T10:28:10.572Z,10.65
2024-02-04T10:30:41.194Z,10.68
2024-02-04T10:33:11.143Z,10.66
2024-02-04T10:35:40.560Z,10.69
2024-02-04T10:38:11.393Z,10.72
2024-02-04T10:40:40.681Z,10.73
2024-02-04T10:43:12.975Z,10.73
2024-02-04T10:45:46.107Z,10.71
2024-02-04T10:48:22.422Z,10.63
2024-02-04T10:50:55.950Z,10.70
2024-02-04T10:53:26.660Z,10.72
2024-02-04T10:56:03.983Z,10.74
2024-02-04T10:58:35.441Z,10.69
2024-02-04T11:01:05.296Z,10.75
2024-02-04T11:03:35.909Z,10.81
2024-02-04T11:06:06.111Z,10.86
2024-02-04T11:08:35.935Z,10.89
2024-02-04T11:11:06.269Z,10.88
2024-02-04T11:13:39.041Z,10.93
2024-02-04T11:16:30.210Z,10.91
2024-02-04T11:19:29.439Z,10.98
2024-02-04T11:22:26.611Z,10.97
2024-02-04T11:25:33.788Z,11.03
2024-02-04T11:28:03.701Z,10.98
2024-02-04T11:30:37.721Z,10.95
2024-02-04T11:33:12.897Z,10.93
2024-02-04T11:35:42.510Z,10.97
2024-02-04T11:38:12.694Z,10.93
2024-02-04T11:40:42.902Z,11.03
2024-02-04T11:43:17.140Z,10.99
2024-02-04T11:45:48.340Z,11.04
2024-02-04T11:48:42.350Z,11.05
2024-02-04T11:51:12.366Z,11.12
2024-02-04T11:53:41.786Z,11.17
2024-02-04T11:56:11.327Z,11.11
2024-02-04T11:58:42.567Z,11.13
2024-02-04T12:01:14.759Z,11.15
2024-02-04T12:03:44.482Z,11.17
2024-02-04T12:06:16.782Z,11.18
2024-02-04T12:08:46.339Z,11.16
2024-02-04T12:11:17.018Z,11.16
2024-02-04T12:13:47.526Z,11.14
2024-02-04T12:16:16.974Z,11.15
2024-02-04T12:18:54.227Z,11.21
2024-02-04T12:21:24.559Z,11.17
2024-02-04T12:23:54.749Z,11.17
2024-02-04T12:26:25.523Z,11.16
2024-02-04T12:28:56.349Z,11.16
2024-02-04T12:31:33.022Z,11.17
2024-02-04T12:34:04.791Z,11.19
2024-02-04T12:36:35.769Z,11.23
2024-02-04T12:39:11.220Z,11.15
2024-02-04T12:41:40.642Z,11.16
2024-02-04T12:44:10.184Z,11.09
2024-02-04T12:46:40.800Z,11.08
2024-02-04T12:49:10.866Z,11.05
2024-02-04T12:51:40.363Z,11.08
2024-02-04T12:54:14.581Z,11.03
2024-02-04T12:57:00.200Z,11.03
2024-02-04T12:59:37.830Z,11.05
2024-02-04T13:02:11.487Z,11.04
2024-02-04T13:08:11.594Z,11.03
2024-02-04T13:10:44.009Z,11.02
2024-02-04T13:13:15.058Z,11.05
2024-02-04T13:15:46.308Z,11.06
2024-02-04T13:18:38.915Z,11.07
2024-02-04T13:21:09.975Z,11.05
2024-02-04T13:23:40.465Z,11.05
2024-02-04T13:26:10.326Z,11.06
2024-02-04T13:28:40.713Z,11.10
2024-02-04T13:31:10.869Z,11.17
2024-02-04T13:33:43.764Z,11.15
2024-02-04T13:36:14.741Z,11.18
2024-02-04T13:38:47.182Z,11.19
2024-02-04T13:41:17.542Z,11.18
2024-02-04T13:43:46.926Z,11.20
2024-02-04T13:46:34.441Z,11.20
2024-02-04T13:49:04.729Z,11.21
2024-02-04T13:51:41.491Z,11.18
2024-02-04T13:54:18.051Z,11.18
2024-02-04T13:56:48.356Z,11.20
2024-02-04T13:59:17.755Z,11.20
2024-02-04T14:01:48.366Z,11.22
2024-02-04T14:04:17.864Z,11.26
2024-02-04T14:06:47.251Z,11.23
2024-02-04T14:09:17.636Z,11.21
2024-02-04T14:11:47.042Z,11.11
2024-02-04T14:14:16.921Z,11.14
2024-02-04T14:16:46.302Z,11.11
2024-02-04T14:19:15.867Z,11.10
2024-02-04T14:21:45.284Z,11.04
2024-02-04T14:24:15.107Z,11.05
2024-02-04T14:26:45.250Z,11.01
2024-02-04T14:29:14.582Z,11.05
2024-02-04T14:31:44.674Z,11.05
2024-02-04T14:34:14.134Z,11.06
2024-02-04T14:36:43.648Z,11.03
2024-02-04T14:39:13.032Z,11.04
2024-02-04T14:41:42.369Z,11.04
2024-02-04T14:44:12.162Z,11.02
2024-02-04T14:46:41.983Z,10.99
2024-02-04T14:49:12.035Z,10.95
2024-02-04T14:51:41.865Z,10.94
2024-02-04T14:54:11.246Z,10.98
2024-02-04T14:56:44.818Z,10.96
2024-02-04T14:59:21.817Z,11.01
2024-02-04T15:01:52.868Z,11.03
2024-02-04T15:04:22.377Z,11.00
2024-02-04T15:06:51.936Z,11.05
2024-02-04T15:09:22.057Z,11.05
2024-02-04T15:11:51.721Z,11.08
2024-02-04T15:14:21.084Z,11.06
2024-02-04T15:16:50.546Z,11.11
2024-02-04T15:19:20.305Z,11.16
2024-02-04T15:21:49.958Z,11.08
2024-02-04T15:24:19.778Z,11.07
2024-02-04T15:26:53.593Z,11.05
2024-02-04T15:29:23.108Z,11.02
2024-02-04T15:32:14.237Z,10.99
2024-02-04T15:34:45.479Z,11.01
2024-02-04T15:37:15.566Z,10.96
2024-02-04T15:39:45.079Z,10.96
2024-02-04T15:42:14.431Z,10.92
2024-02-04T15:44:43.835Z,10.90
2024-02-04T15:47:16.113Z,10.93
2024-02-04T15:49:46.112Z,10.98
2024-02-04T15:52:16.269Z,10.98
2024-02-04T15:54:45.947Z,10.94
2024-02-04T15:57:17.078Z,10.97
2024-02-04T15:59:58.396Z,10.98
2024-02-04T16:02:27.792Z,10.99
2024-02-04T16:04:57.330Z,11.01
2024-02-04T16:07:27.636Z,10.95
2024-02-04T16:09:57.191Z,10.97
2024-02-04T16:12:26.671Z,10.97
2024-02-04T16:14:58.341Z,10.98
2024-02-04T16:17:30.907Z,10.92
2024-02-04T16:20:01.800Z,10.95
2024-02-04T16:22:32.327Z,10.97
2024-02-04T16:25:02.014Z,11.02
2024-02-04T16:27:32.442Z,10.99
2024-02-04T16:30:01.837Z,10.95
2024-02-04T16:32:31.134Z,10.94
2024-02-04T16:35:00.871Z,10.90
2024-02-04T16:37:30.306Z,10.90
2024-02-04T16:39:59.827Z,10.89
2024-02-04T16:42:31.638Z,10.82
2024-02-04T16:45:01.020Z,10.86
2024-02-04T16:47:30.448Z,10.86
2024-02-04T16:50:00.181Z,10.81
2024-02-04T16:52:29.632Z,10.85
2024-02-04T16:54:59.277Z,10.86
2024-02-04T16:57:28.698Z,10.84
2024-02-04T16:59:58.048Z,10.86
2024-02-04T17:02:28.739Z,10.86
2024-02-04T17:05:00.911Z,10.87
2024-02-04T17:07:30.393Z,10.81
2024-02-04T17:09:59.928Z,10.82
2024-02-04T17:12:30.626Z,10.81
2024-02-04T17:15:00.311Z,10.81
2024-02-04T17:17:29.711Z,10.80
2024-02-04T17:20:13.014Z,10.84
2024-02-04T17:22:44.761Z,10.85
2024-02-04T17:25:19.629Z,10.80
2024-02-04T17:27:51.746Z,10.81
2024-02-04T17:30:21.394Z,10.80
2024-02-04T17:32:53.924Z,10.80
2024-02-04T17:35:24.458Z,10.82
2024-02-04T17:37:53.999Z,10.71
2024-02-04T17:40:23.565Z,10.76
2024-02-04T17:42:56.612Z,10.74
2024-02-04T17:45:28.301Z,10.78
2024-02-04T17:47:57.926Z,10.78
2024-02-04T17:50:29.003Z,10.76
2024-02-04T17:52:58.372Z,10.81
2024-02-04T17:55:28.080Z,10.82
2024-02-04T17:58:01.147Z,10.77
2024-02-04T18:00:31.271Z,10.78
2024-02-04T18:03:01.137Z,10.77
2024-02-04T18:05:31.213Z,10.75
2024-02-04T18:08:00.788Z,10.71
2024-02-04T18:10:30.406Z,10.81
2024-02-04T18:13:00.646Z,10.78
2024-02-04T18:15:30.044Z,10.82
2024-02-04T18:17:59.534Z,10.76
2024-02-04T18:20:29.210Z,10.84
2024-02-04T18:22:58.539Z,10.78
2024-02-04T18:25:28.451Z,10.81
2024-02-04T18:27:57.853Z,10.82
2024-02-04T18:30:27.690Z,10.83
2024-02-04T18:32:57.189Z,10.86
2024-02-04T18:35:26.768Z,10.85
2024-02-04T18:37:57.234Z,10.88
2024-02-04T18:40:26.748Z,10.83
2024-02-04T18:42:57.659Z,10.80
2024-02-04T18:45:27.048Z,10.78
2024-02-04T18:47:57.163Z,10.84
2024-02-04T18:50:28.277Z,10.77
2024-02-04T18:52:58.433Z,10.80
2024-02-04T18:55:27.875Z,10.77
2024-02-04T18:57:57.397Z,10.77
2024-02-04T19:00:27.044Z,10.82
2024-02-04T19:02:56.474Z,10.79
2024-02-04T19:05:25.903Z,10.80
2024-02-04T19:07:55.344Z,10.83
2024-02-04T19:10:24.756Z,10.79
2024-02-04T19:12:54.263Z,10.83
2024-02-04T19:15:23.629Z,10.85
2024-02-04T19:17:53.008Z,10.82
2024-02-04T19:20:22.354Z,10.88
2024-02-04T19:22:53.503Z,10.88
2024-02-04T19:25:22.946Z,10.87
2024-02-04T19:27:57.540Z,10.87
2024-02-04T19:30:29.234Z,10.88
2024-02-04T19:32:58.841Z,10.87
2024-02-04T19:35:29.887Z,10.86
2024-02-04T19:37:59.838Z,10.89
2024-02-04T19:40:29.973Z,10.94
2024-02-04T19:42:59.320Z,10.94
2024-02-04T19:45:28.790Z,10.92
2024-02-04T19:48:00.318Z,10.93
2024-02-04T19:50:29.638Z,10.95
2024-02-04T19:52:59.044Z,10.94
2024-02-04T19:55:28.391Z,10.95
2024-02-04T19:57:59.785Z,10.95
2024-02-04T20:00:30.844Z,10.95
2024-02-04T20:03:01.078Z,10.98
2024-02-04T20:05:30.369Z,10.98
2024-02-04T20:07:59.817Z,10.99
2024-02-04T20:10:29.277Z,10.92
2024-02-04T20:12:58.671Z,10.94
2024-02-04T20:15:29.578Z,10.91
2024-02-04T20:18:00.126Z,10.94
2024-02-04T20:20:31.259Z,10.95
2024-02-04T20:23:00.670Z,10.94
2024-02-04T20:25:30.158Z,10.88
2024-02-04T20:28:00.269Z,10.87
2024-02-04T20:30:32.208Z,10.86
2024-02-04T20:33:01.655Z,10.87
2024-02-04T20:35:31.075Z,10.83
2024-02-04T20:38:03.337Z,10.85
2024-02-04T20:40:32.692Z,10.87
2024-02-04T20:43:02.038Z,10.89
2024-02-04T20:45:31.652Z,10.89
2024-02-04T20:48:01.147Z,10.88
2024-02-04T20:50:30.680Z,10.85
2024-02-04T20:53:00.886Z,10.79
2024-02-04T20:55:30.493Z,10.82
2024-02-04T20:58:00.338Z,10.84
2024-02-04T21:00:32.707Z,10.84
2024-02-04T21:03:02.182Z,10.73
2024-02-04T21:05:34.884Z,10.83
2024-02-04T21:08:11.191Z,10.75
2024-02-04T21:10:40.558Z,10.75
2024-02-04T21:13:09.903Z,10.74
2024-02-04T21:15:39.290Z,10.75
2024-02-04T21:18:08.753Z,10.72
2024-02-04T21:20:38.530Z,10.73
2024-02-04T21:23:08.283Z,10.75
2024-02-04T21:25:38.159Z,10.77
2024-02-04T21:28:07.713Z,10.75
2024-02-04T21:30:38.288Z,10.72
2024-02-04T21:33:07.720Z,10.73
2024-02-04T21:35:37.145Z,10.78
2024-02-04T21:38:07.504Z,10.76
2024-02-04T21:40:43.452Z,10.70
2024-02-04T21:43:12.898Z,10.71
2024-02-04T21:45:43.192Z,10.80
2024-02-04T21:48:12.829Z,10.77
2024-02-04T21:50:43.066Z,10.81
2024-02-04T21:53:12.411Z,10.72
2024-02-04T21:55:42.152Z,10.73
2024-02-04T21:58:11.590Z,10.80
2024-02-04T22:00:42.624Z,10.77
2024-02-04T22:03:12.120Z,10.81
2024-02-04T22:05:41.552Z,10.80
2024-02-04T22:08:11.126Z,10.85
2024-02-04T22:10:41.098Z,10.81
2024-02-04T22:13:10.826Z,10.82
2024-02-04T22:15:40.195Z,10.80
2024-02-04T22:18:09.656Z,10.78
2024-02-04T22:20:39.051Z,10.80
2024-02-04T22:23:09.181Z,10.80
2024-02-04T22:25:38.563Z,10.79
2024-02-04T22:28:08.125Z,10.77
2024-02-04T22:30:37.467Z,10.78
2024-02-04T22:33:08.848Z,10.79
2024-02-04T22:35:38.936Z,10.82
2024-02-04T22:38:08.306Z,10.84
2024-02-04T22:40:37.853Z,10.81
2024-02-04T22:43:07.401Z,10.84
2024-02-04T22:45:38.075Z,10.77
2024-02-04T22:48:08.139Z,10.78
2024-02-04T22:50:40.482Z,10.80
2024-02-04T22:53:11.025Z,10.76
2024-02-04T22:55:40.720Z,10.73
2024-02-04T22:58:10.178Z,10.76
2024-02-04T23:00:40.038Z,10.80
2024-02-04T23:03:09.714Z,10.81
2024-02-04T23:05:39.540Z,10.81
2024-02-04T23:08:09.116Z,10.74
2024-02-04T23:10:38.580Z,10.78
2024-02-04T23:13:10.309Z,10.73
2024-02-04T23:15:41.183Z,10.79
2024-02-04T23:18:10.577Z,10.80
2024-02-04T23:20:40.025Z,10.77
2024-02-04T23:23:09.355Z,10.73
2024-02-04T23:25:38.705Z,10.73
2024-02-04T23:28:08.164Z,10.70
2024-02-04T23:30:37.558Z,10.71
2024-02-04T23:33:07.133Z,10.68
2024-02-04T23:35:36.524Z,10.68
2024-02-04T23:38:05.998Z,10.69
2024-02-04T23:40:35.425Z,10.65
2024-02-04T23:43:05.098Z,10.65
2024-02-04T23:45:34.527Z,10.69
2024-02-04T23:48:04.103Z,10.68
2024-02-04T23:50:33.467Z,10.65
2024-02-04T23:53:03.990Z,10.66
2024-02-04T23:55:33.268Z,10.58
2024-02-04T23:58:02.664Z,10.64
